createdAt,value
2022-11-21T00:00:55.239Z,19.80
2022-11-21T00:02:26.984Z,20.70
2022-11-21T00:03:58.799Z,20.70
2022-11-21T00:05:33.495Z,22.60
2022-11-21T00:07:05.439Z,21.30
2022-11-21T00:08:37.384Z,20.50
2022-11-21T00:10:09.474Z,22.90
2022-11-21T00:11:41.207Z,24.00
2022-11-21T00:13:19.678Z,18.10
2022-11-21T00:14:51.500Z,20.50
2022-11-21T00:16:23.340Z,19.30
2022-11-21T00:17:55.235Z,18.40
2022-11-21T00:19:26.998Z,20.20
2022-11-21T00:21:11.090Z,20.90
2022-11-21T00:22:42.939Z,20.30
2022-11-21T00:24:14.975Z,20.50
2022-11-21T00:25:48.789Z,21.10
2022-11-21T00:27:20.592Z,17.40
2022-11-21T00:28:52.415Z,18.60
2022-11-21T00:30:24.258Z,19.40
2022-11-21T00:31:56.044Z,20.20
2022-11-21T00:33:27.835Z,20.00
2022-11-21T00:34:59.984Z,18.80
2022-11-21T00:36:31.801Z,18.60
2022-11-21T00:38:03.605Z,18.00
2022-11-21T00:42:12.711Z,19.00
2022-11-21T00:43:44.610Z,17.80
2022-11-21T00:45:22.717Z,16.00
2022-11-21T00:46:56.782Z,17.00
2022-11-21T00:48:29.979Z,17.00
2022-11-21T00:50:01.838Z,17.70
2022-11-21T00:51:36.639Z,17.70
2022-11-21T00:53:08.629Z,15.90
2022-11-21T00:54:40.467Z,16.10
2022-11-21T00:56:13.415Z,15.70
2022-11-21T00:57:45.118Z,16.00
2022-11-21T00:59:17.229Z,18.90
2022-11-21T01:00:49.341Z,17.50
2022-11-21T01:02:21.570Z,17.80
2022-11-21T01:03:53.414Z,18.70
2022-11-21T01:05:25.341Z,18.90
2022-11-21T01:06:57.279Z,18.50
2022-11-21T01:08:29.696Z,17.00
2022-11-21T01:10:01.575Z,18.00
2022-11-21T01:11:33.677Z,18.70
2022-11-21T01:13:06.614Z,19.10
2022-11-21T01:14:38.459Z,17.30
2022-11-21T01:16:13.500Z,17.20
2022-11-21T01:17:45.645Z,16.90
2022-11-21T01:19:17.520Z,15.60
2022-11-21T01:20:49.307Z,15.70
2022-11-21T01:22:21.118Z,17.10
2022-11-21T01:24:02.741Z,17.80
2022-11-21T01:25:35.965Z,16.80
2022-11-21T01:27:07.818Z,18.10
2022-11-21T01:28:40.284Z,18.00
2022-11-21T01:30:13.540Z,19.00
2022-11-21T01:31:45.719Z,20.30
2022-11-21T01:33:17.502Z,18.60
2022-11-21T01:34:49.335Z,16.40
2022-11-21T01:36:23.413Z,17.20
2022-11-21T01:37:55.365Z,15.90
2022-11-21T01:39:27.452Z,19.60
2022-11-21T01:40:59.429Z,16.80
2022-11-21T01:43:04.514Z,15.90
2022-11-21T01:44:54.538Z,17.60
2022-11-21T01:46:26.829Z,18.10
2022-11-21T01:47:59.500Z,17.40
2022-11-21T01:49:33.125Z,19.00
2022-11-21T01:51:37.968Z,18.30
2022-11-21T01:53:10.168Z,16.90
2022-11-21T01:54:43.400Z,17.70
2022-11-21T01:56:15.886Z,20.70
2022-11-21T01:57:49.777Z,16.60
2022-11-21T01:59:34.394Z,19.60
2022-11-21T02:01:06.994Z,19.40
2022-11-21T02:02:49.525Z,20.30
2022-11-21T02:04:26.888Z,19.40
2022-11-21T02:06:00.084Z,18.30
2022-11-21T02:07:38.440Z,17.70
2022-11-21T02:09:10.549Z,20.90
2022-11-21T02:11:12.879Z,20.90
2022-11-21T02:12:57.989Z,18.60
2022-11-21T02:14:30.343Z,19.30
2022-11-21T02:16:03.416Z,18.50
2022-11-21T02:17:35.370Z,19.00
2022-11-21T02:19:20.242Z,18.90
2022-11-21T02:21:09.820Z,18.70
2022-11-21T02:23:09.822Z,18.40
2022-11-21T02:25:09.519Z,18.80
2022-11-21T02:26:42.481Z,20.10
2022-11-21T02:28:25.519Z,18.90
2022-11-21T02:29:57.873Z,18.30
2022-11-21T02:31:29.823Z,19.90
2022-11-21T02:33:01.687Z,17.10
2022-11-21T02:34:35.389Z,17.50
2022-11-21T02:36:43.698Z,19.70
2022-11-21T02:38:28.858Z,18.60
2022-11-21T02:40:09.506Z,20.40
2022-11-21T02:41:51.704Z,19.70
2022-11-21T02:43:38.343Z,21.90
2022-11-21T02:45:18.855Z,19.20
2022-11-21T02:46:52.727Z,20.80
2022-11-21T02:48:25.921Z,19.60
2022-11-21T02:50:12.836Z,19.00
2022-11-21T02:51:44.638Z,16.30
2022-11-21T02:53:20.077Z,17.20
2022-11-21T02:54:52.520Z,16.60
2022-11-21T02:56:24.427Z,20.60
2022-11-21T02:58:03.208Z,19.40
2022-11-21T02:59:41.685Z,20.80
2022-11-21T03:01:13.620Z,21.30
2022-11-21T03:02:47.756Z,20.40
2022-11-21T03:04:20.156Z,21.40
2022-11-21T03:05:56.731Z,21.10
2022-11-21T03:07:29.633Z,21.20
2022-11-21T03:09:02.014Z,18.50
2022-11-21T03:10:34.380Z,20.90
2022-11-21T03:12:10.901Z,22.30
2022-11-21T03:13:42.750Z,21.10
2022-11-21T03:15:16.416Z,23.00
2022-11-21T03:16:48.780Z,19.50
2022-11-21T03:18:20.588Z,23.10
2022-11-21T03:19:52.869Z,21.30
2022-11-21T03:21:24.593Z,19.20
2022-11-21T03:22:56.403Z,17.60
2022-11-21T03:24:29.031Z,20.70
2022-11-21T03:26:01.435Z,21.30
2022-11-21T03:27:33.288Z,20.90
2022-11-21T03:29:05.323Z,23.40
2022-11-21T03:30:37.136Z,23.50
2022-11-21T03:32:09.151Z,22.00
2022-11-21T03:33:41.025Z,21.30
2022-11-21T03:35:12.989Z,22.90
2022-11-21T03:36:45.202Z,22.10
2022-11-21T03:38:18.180Z,22.20
2022-11-21T03:39:49.949Z,23.80
2022-11-21T03:41:30.599Z,21.80
2022-11-21T03:43:07.844Z,22.90
2022-11-21T03:44:39.678Z,21.10
2022-11-21T03:46:14.595Z,21.70
2022-11-21T03:47:46.548Z,23.10
2022-11-21T03:49:18.483Z,22.00
2022-11-21T03:50:50.205Z,23.60
2022-11-21T03:52:21.968Z,20.80
2022-11-21T03:53:54.485Z,20.60
2022-11-21T03:55:26.184Z,19.70
2022-11-21T03:56:57.891Z,25.20
2022-11-21T03:58:29.630Z,19.00
2022-11-21T04:00:01.406Z,22.70
2022-11-21T04:01:36.623Z,21.80
2022-11-21T04:03:08.977Z,27.20
2022-11-21T04:04:41.019Z,26.10
2022-11-21T04:06:17.683Z,24.60
2022-11-21T04:07:49.463Z,20.90
2022-11-21T04:09:21.366Z,26.70
2022-11-21T04:10:54.603Z,26.10
2022-11-21T04:12:26.328Z,23.00
2022-11-21T04:13:58.076Z,22.20
2022-11-21T04:15:29.860Z,23.40
2022-11-21T04:17:01.726Z,22.20
2022-11-21T04:18:36.786Z,24.60
2022-11-21T04:20:09.830Z,27.10
2022-11-21T04:21:41.606Z,27.40
2022-11-21T04:23:13.980Z,25.00
2022-11-21T04:24:45.703Z,26.50
2022-11-21T04:26:17.439Z,26.70
2022-11-21T04:27:52.461Z,26.40
2022-11-21T04:29:24.296Z,28.40
2022-11-21T04:30:58.323Z,26.40
2022-11-21T04:32:32.256Z,24.10
2022-11-21T04:34:04.267Z,22.10
2022-11-21T04:35:36.032Z,19.70
2022-11-21T04:37:11.514Z,20.70
2022-11-21T04:38:43.691Z,19.60
2022-11-21T04:40:16.648Z,20.80
2022-11-21T04:41:48.444Z,24.50
2022-11-21T04:43:20.201Z,24.40
2022-11-21T04:44:51.939Z,16.90
2022-11-21T04:46:23.842Z,23.30
2022-11-21T04:47:55.586Z,23.40
2022-11-21T04:49:28.740Z,24.40
2022-11-21T04:51:00.601Z,24.80
2022-11-21T04:52:32.463Z,24.40
2022-11-21T04:54:04.337Z,20.60
2022-11-21T04:55:36.198Z,22.20
2022-11-21T04:57:08.420Z,21.50
2022-11-21T04:58:40.155Z,22.70
2022-11-21T05:00:14.323Z,21.20
2022-11-21T05:01:46.115Z,23.90
2022-11-21T05:03:17.896Z,23.30
2022-11-21T05:04:50.395Z,22.70
2022-11-21T05:06:22.417Z,22.60
2022-11-21T05:07:54.096Z,20.70
2022-11-21T05:09:25.841Z,23.60
2022-11-21T05:11:16.168Z,19.40
2022-11-21T05:13:06.332Z,24.30
2022-11-21T05:14:38.057Z,21.50
2022-11-21T05:16:10.955Z,21.70
2022-11-21T05:17:42.697Z,26.20
2022-11-21T05:19:14.625Z,30.20
2022-11-21T05:20:46.471Z,30.40
2022-11-21T05:22:18.538Z,31.60
2022-11-21T05:23:50.224Z,31.30
2022-11-21T05:25:21.925Z,31.20
2022-11-21T05:26:54.859Z,32.20
2022-11-21T05:28:26.905Z,32.90
2022-11-21T05:29:58.659Z,32.30
2022-11-21T05:31:30.773Z,32.20
2022-11-21T05:33:02.813Z,29.70
2022-11-21T05:37:11.927Z,28.70
2022-11-21T05:38:44.564Z,30.40
2022-11-21T05:40:16.834Z,30.00
2022-11-21T05:41:48.652Z,29.40
2022-11-21T05:43:39.535Z,32.90
2022-11-21T05:45:13.460Z,31.40
2022-11-21T05:46:46.160Z,28.00
2022-11-21T05:48:19.550Z,26.90
2022-11-21T05:49:51.428Z,27.00
2022-11-21T05:51:23.503Z,36.10
2022-11-21T05:52:55.377Z,34.60
2022-11-21T05:54:27.489Z,35.10
2022-11-21T05:56:25.814Z,35.10
2022-11-21T05:58:02.176Z,34.80
2022-11-21T05:59:33.961Z,38.00
2022-11-21T06:01:10.449Z,28.50
2022-11-21T06:03:30.788Z,29.10
2022-11-21T06:05:02.597Z,34.10
2022-11-21T06:06:35.655Z,27.60
2022-11-21T06:08:07.468Z,38.40
2022-11-21T06:09:39.243Z,33.40
2022-11-21T06:11:16.971Z,35.60
2022-11-21T06:12:48.756Z,35.40
2022-11-21T06:14:20.498Z,37.20
2022-11-21T06:15:57.314Z,35.90
2022-11-21T06:17:29.053Z,35.10
2022-11-21T06:19:00.833Z,32.60
2022-11-21T06:20:32.701Z,26.30
2022-11-21T06:22:04.493Z,37.30
2022-11-21T06:23:36.568Z,34.10
2022-11-21T06:25:09.179Z,39.70
2022-11-21T06:26:41.013Z,38.00
2022-11-21T06:28:12.923Z,38.90
2022-11-21T06:29:44.739Z,39.40
2022-11-21T06:31:23.847Z,39.30
2022-11-21T06:32:55.688Z,35.00
2022-11-21T06:34:27.737Z,32.60
2022-11-21T06:36:09.980Z,36.70
2022-11-21T06:37:42.380Z,39.90
2022-11-21T06:39:14.278Z,35.00
2022-11-21T06:40:46.372Z,29.60
2022-11-21T06:42:18.130Z,28.50
2022-11-21T06:43:50.192Z,28.70
2022-11-21T06:45:21.992Z,33.40
2022-11-21T06:46:53.713Z,32.90
2022-11-21T06:48:28.145Z,31.00
2022-11-21T06:50:00.738Z,35.90
2022-11-21T06:51:32.578Z,38.50
2022-11-21T06:53:05.011Z,39.20
2022-11-21T06:54:37.104Z,38.40
2022-11-21T06:56:09.457Z,32.30
2022-11-21T06:57:41.289Z,36.00
2022-11-21T06:59:13.130Z,40.50
2022-11-21T07:00:45.031Z,34.60
2022-11-21T07:02:17.155Z,35.60
2022-11-21T07:03:52.718Z,28.40
2022-11-21T07:05:24.680Z,32.00
2022-11-21T07:06:56.557Z,31.30
2022-11-21T07:08:31.487Z,29.00
2022-11-21T07:10:03.665Z,33.80
2022-11-21T07:11:35.733Z,37.40
2022-11-21T07:13:22.729Z,35.90
2022-11-21T07:14:54.708Z,36.80
2022-11-21T07:16:30.264Z,32.30
2022-11-21T07:18:02.430Z,34.50
2022-11-21T07:19:37.337Z,32.70
2022-11-21T07:21:12.841Z,33.20
2022-11-21T07:22:46.043Z,36.80
2022-11-21T07:24:17.966Z,35.10
2022-11-21T07:25:49.708Z,37.70
2022-11-21T07:27:21.556Z,35.40
2022-11-21T07:28:53.382Z,35.70
2022-11-21T07:30:25.748Z,38.10
2022-11-21T07:31:57.644Z,32.30
2022-11-21T07:33:30.043Z,35.20
2022-11-21T10:57:51.263Z,44.50
2022-11-21T10:59:30.747Z,44.00
2022-11-21T11:01:03.788Z,41.70
2022-11-21T11:02:35.645Z,48.30
2022-11-21T11:04:43.886Z,43.20
2022-11-21T11:06:11.247Z,45.10
2022-11-21T11:08:12.384Z,41.20
2022-11-21T11:09:47.137Z,36.50
2022-11-21T11:11:25.509Z,39.30
2022-11-21T11:13:44.405Z,37.20
2022-11-21T11:15:24.086Z,44.40
2022-11-21T11:16:56.086Z,32.30
2022-11-21T11:18:28.644Z,41.90
2022-11-21T11:20:36.337Z,39.30
2022-11-21T11:22:30.102Z,31.10
2022-11-21T11:24:13.707Z,36.30
2022-11-21T11:25:58.024Z,32.60
2022-11-21T11:27:30.296Z,34.80
2022-11-21T11:29:15.824Z,35.20
2022-11-21T11:30:49.607Z,37.60
2022-11-21T11:32:22.735Z,37.80
2022-11-21T11:33:56.273Z,34.90
2022-11-21T11:35:36.783Z,34.80
2022-11-21T11:37:14.026Z,38.10
2022-11-21T11:38:57.512Z,37.80
2022-11-21T11:40:44.957Z,35.40
2022-11-21T11:43:27.574Z,42.30
2022-11-21T11:45:54.883Z,31.50
2022-11-21T11:47:32.902Z,34.20
2022-11-21T11:49:30.290Z,29.80
2022-11-21T11:51:57.234Z,25.80
2022-11-21T11:53:34.069Z,29.80
2022-11-21T11:55:21.471Z,31.20
2022-11-21T11:56:55.050Z,26.80
2022-11-21T11:58:50.171Z,27.70
2022-11-21T12:00:50.306Z,27.00
2022-11-21T12:03:08.346Z,18.40
2022-11-21T12:04:55.721Z,18.00
2022-11-21T12:09:18.613Z,19.60
2022-11-21T12:11:48.329Z,28.90
2022-11-21T12:13:21.208Z,19.30
2022-11-21T12:15:49.283Z,20.60
2022-11-21T12:17:33.775Z,21.60
2022-11-21T12:19:15.821Z,17.70
2022-11-21T12:21:02.758Z,21.30
2022-11-21T12:22:34.499Z,20.20
2022-11-21T12:24:11.934Z,22.70
2022-11-21T12:26:01.846Z,20.80
2022-11-21T12:27:34.466Z,16.10
2022-11-21T12:29:36.831Z,18.60
2022-11-21T12:31:37.524Z,22.10
2022-11-21T12:33:12.477Z,15.50
2022-11-21T12:35:54.029Z,18.20
2022-11-21T12:37:43.936Z,17.50
2022-11-21T12:41:31.914Z,14.20
2022-11-21T12:43:46.987Z,14.30
2022-11-21T12:45:51.009Z,10.40
2022-11-21T12:47:57.660Z,12.10
2022-11-21T12:50:11.669Z,12.70
2022-11-21T12:52:41.713Z,13.50
2022-11-21T12:54:41.480Z,12.70
2022-11-21T12:56:34.803Z,15.70
2022-11-21T12:58:21.807Z,12.20
2022-11-21T13:00:03.647Z,12.50
2022-11-21T13:01:42.143Z,17.20
2022-11-21T13:03:22.836Z,11.00
2022-11-21T13:04:58.409Z,16.60
2022-11-21T13:06:38.283Z,13.50
2022-11-21T13:08:31.268Z,12.10
2022-11-21T13:10:23.064Z,14.40
2022-11-21T13:12:09.546Z,10.80
2022-11-21T13:13:51.801Z,11.60
2022-11-21T13:16:39.626Z,11.20
2022-11-21T13:18:32.671Z,13.80
2022-11-21T13:20:37.517Z,11.50
2022-11-21T13:22:37.280Z,11.60
2022-11-21T13:24:10.058Z,12.60
2022-11-21T13:25:47.480Z,13.80
2022-11-21T13:27:39.907Z,13.40
2022-11-21T13:29:14.313Z,11.70
2022-11-21T13:30:47.726Z,12.50
2022-11-21T13:32:44.533Z,12.40
2022-11-21T13:34:31.746Z,13.60
2022-11-21T13:36:36.907Z,14.90
2022-11-21T13:38:08.831Z,17.60
2022-11-21T13:39:40.774Z,14.50
2022-11-21T13:41:53.879Z,12.20
2022-11-21T13:43:35.483Z,9.90
